• Join FlightAware (Why Join?)
  • Login
  • US Flag 
10:22AM EDT


 

Airport Tracker/Info


-or-


 

Live Flight TrackerFlight Track Log ✈ MJI44 ✈ 21-Apr-2013 ✈ KHYA - KMMU

Flight Track Log - Related Links

Times and Time Zones

All times are in EDT time to prevent confusion due to time zone crossing. See the MJI44 flight status page for this flight to view local times or setup timezone preferences in your user account.

Time Position Orientation Groundspeed Altitude Reporting Facility
EDT Latitude Longitude Course Direction KTS MPH feet Rate Location/Type
02:14PM 41.7456 -70.3561 283° West 266 306 8,900  Level Boston Center
02:15PM 41.7411 -70.4647 267° West 286 329 10,200 2,220 Climbing Boston Center
02:16PM 41.7433 -70.5869 271° West 307 353 13,400 3,840 Climbing Boston Center
02:17PM 41.7389 -70.7014 267° West 315 362 17,900 2,280 Climbing Boston Center
02:18PM 41.6167 -70.7889 270° West  Level FlightAware Approximate
02:18PM 41.7386 -70.8153 270° West 315 362 18,000  Level Boston Center
02:19PM 41.7342 -70.9517 268° West 339 390 18,000  Level Boston Center
02:20PM 41.7314 -71.0769 268° West 375 432 18,000  Level Boston Center
02:21PM 41.7292 -71.2300 269° West 380 437 18,000  Level Boston Center
02:22PM 41.7261 -71.3553 268° West 387 445 18,000  Level Boston Center
02:23PM 41.7628 -71.4994 289° West 374 430 18,000  Level Boston Center
02:24PM 41.8283 -71.6153 307° West 374 430 18,100  Climbing Boston Center
02:25PM 41.8853 -71.7178 307° West 384 442 18,000  Descending Boston Center
02:26PM 41.9550 -71.8483 306° West 390 449 18,100  Climbing Boston Center
02:27PM 41.9847 -71.9736 288° West 390 449 18,100  Level Boston Center
02:28PM 42.0103 -72.1189 283° West 379 436 18,200 -600 Climbing Boston Center
02:29PM 41.9750 -72.2250 246° West 343 395 17,000 -900 Descending Boston Center
02:30PM 41.9106 -72.3508 235° Southwest 366 421 16,500 -240 Descending Boston Center
02:31PM 41.8564 -72.4625 237° Southwest 390 449 16,600  Climbing Boston Center
02:32PM 41.7897 -72.5933 236° Southwest 395 455 16,500 -60 Descending Boston Center
02:33PM 41.7353 -72.6961 235° Southwest 395 455 16,500  Level Boston Center
02:34PM 41.6725 -72.8292 238° Southwest 395 455 16,500  Level Boston Center
02:35PM 41.6242 -72.9372 239° Southwest 384 442 16,500  Level Boston Center
02:37PM 41.4833 -73.2500 239° Southwest 388 447 16,600  Climbing New York TRACON
02:38PM 41.4333 -73.3833 243° Southwest 383 441 16,500 -240 Descending New York TRACON
02:39PM 41.3833 -73.5000 240° Southwest 383 441 16,200 -1,320 Descending New York TRACON
02:40PM 41.3333 -73.6167 240° Southwest 359 413 14,100 -2,340 Descending New York TRACON
02:41PM 41.2833 -73.7333 240° Southwest 368 423 11,600 -2,100 Descending New York TRACON
02:42PM 41.2500 -73.8333 246° West 305 351 9,900 -2,100 Descending New York TRACON
02:43PM 41.2167 -73.9167 242° Southwest 276 318 7,500 -2,220 Descending New York TRACON
02:44PM 41.1667 -74.0167 236° Southwest 274 315 5,500 -1,920 Descending New York TRACON
02:45PM 41.1333 -74.1000 242° Southwest 262 302 3,700 -1,500 Descending New York TRACON
02:46PM 41.1000 -74.1833 242° Southwest 250 288 2,500 -600 Descending New York TRACON
02:47PM 41.0667 -74.2667 242° Southwest 252 290 2,500  Level New York TRACON
02:48PM 41.0333 -74.3333 236° Southwest 249 287 2,500  Level New York TRACON
02:49PM 40.9833 -74.3833 217° Southwest 254 292 2,500  Level New York TRACON
02:50PM 40.9167 -74.3833 180° South 231 266 2,500 -180 Level New York TRACON
02:51PM 40.8500 -74.4167 201° Southwest 205 236 2,200 -600 Descending New York TRACON
02:52PM 40.8167 -74.4333 201° Southwest 184 212 1,400 -780 Descending New York TRACON
02:53PM 40.7833 -74.4333 180° South 142 163 700 -720 Descending New York TRACON
02:55PM 40.7833 -74.4000 90° East  Level FlightAware Approximate
03:02PM 40.7993 -74.4149 90° East  Level Estimated
03:03PM 40.7993 -74.4149 90° East  Level Estimated
03:04PM 40.7993 -74.4149 90° East  Level Estimated
03:05PM 40.7993 -74.4149 90° East  Level Estimated